sensor_id;sensor_type;location;lat;lon;timestamp;temperature;humidity
63383;DHT22;49512;48.744;9.176;2023-02-01T00:00:35;17.10;86.10
63383;DHT22;49512;48.744;9.176;2023-02-01T00:03:00;17.00;86.00
63383;DHT22;49512;48.744;9.176;2023-02-01T00:05:26;17.00;86.20
63383;DHT22;49512;48.744;9.176;2023-02-01T00:07:51;17.00;86.20
63383;DHT22;49512;48.744;9.176;2023-02-01T00:10:17;17.10;85.90
63383;DHT22;49512;48.744;9.176;2023-02-01T00:12:43;17.00;86.20
63383;DHT22;49512;48.744;9.176;2023-02-01T00:15:08;17.00;85.80
63383;DHT22;49512;48.744;9.176;2023-02-01T00:17:34;17.00;86.10
63383;DHT22;49512;48.744;9.176;2023-02-01T00:19:59;17.00;85.90
63383;DHT22;49512;48.744;9.176;2023-02-01T00:22:25;17.00;86.10
63383;DHT22;49512;48.744;9.176;2023-02-01T00:24:50;17.00;86.20
63383;DHT22;49512;48.744;9.176;2023-02-01T00:27:16;17.10;86.00
63383;DHT22;49512;48.744;9.176;2023-02-01T00:29:45;17.00;85.90
63383;DHT22;49512;48.744;9.176;2023-02-01T00:32:11;17.00;85.70
63383;DHT22;49512;48.744;9.176;2023-02-01T00:34:36;17.00;85.70
63383;DHT22;49512;48.744;9.176;2023-02-01T00:37:02;17.00;85.80
63383;DHT22;49512;48.744;9.176;2023-02-01T00:39:27;17.00;85.50
63383;DHT22;49512;48.744;9.176;2023-02-01T00:41:53;17.10;86.10
63383;DHT22;49512;48.744;9.176;2023-02-01T00:46:44;17.00;85.50
63383;DHT22;49512;48.744;9.176;2023-02-01T00:49:09;17.00;85.20
63383;DHT22;49512;48.744;9.176;2023-02-01T00:51:35;17.00;85.30
63383;DHT22;49512;48.744;9.176;2023-02-01T00:54:00;17.00;85.80
63383;DHT22;49512;48.744;9.176;2023-02-01T00:56:26;17.00;86.10
63383;DHT22;49512;48.744;9.176;2023-02-01T00:58:54;17.00;85.90
63383;DHT22;49512;48.744;9.176;2023-02-01T01:01:21;17.00;85.60
63383;DHT22;49512;48.744;9.176;2023-02-01T01:03:48;17.00;85.50
63383;DHT22;49512;48.744;9.176;2023-02-01T01:06:16;17.00;85.40
63383;DHT22;49512;48.744;9.176;2023-02-01T01:08:42;17.00;85.80
63383;DHT22;49512;48.744;9.176;2023-02-01T01:11:09;17.00;85.80
63383;DHT22;49512;48.744;9.176;2023-02-01T01:13:35;17.00;85.60
63383;DHT22;49512;48.744;9.176;2023-02-01T01:16:01;17.00;85.70
63383;DHT22;49512;48.744;9.176;2023-02-01T01:18:28;17.00;85.80
63383;DHT22;49512;48.744;9.176;2023-02-01T01:20:53;17.00;86.70
63383;DHT22;49512;48.744;9.176;2023-02-01T01:23:19;17.00;85.80
63383;DHT22;49512;48.744;9.176;2023-02-01T01:25:44;17.00;86.00
63383;DHT22;49512;48.744;9.176;2023-02-01T01:28:10;17.00;85.90
63383;DHT22;49512;48.744;9.176;2023-02-01T01:30:35;16.90;85.90
63383;DHT22;49512;48.744;9.176;2023-02-01T01:33:01;17.00;85.70
63383;DHT22;49512;48.744;9.176;2023-02-01T01:35:28;17.00;85.80
63383;DHT22;49512;48.744;9.176;2023-02-01T01:37:54;17.00;85.60
63383;DHT22;49512;48.744;9.176;2023-02-01T01:40:19;17.00;85.90
63383;DHT22;49512;48.744;9.176;2023-02-01T01:42:45;16.90;86.00
63383;DHT22;49512;48.744;9.176;2023-02-01T01:47:47;17.00;85.90
63383;DHT22;49512;48.744;9.176;2023-02-01T01:50:15;17.00;85.50
63383;DHT22;49512;48.744;9.176;2023-02-01T01:52:42;17.00;85.40
63383;DHT22;49512;48.744;9.176;2023-02-01T01:55:09;16.90;85.30
63383;DHT22;49512;48.744;9.176;2023-02-01T01:57:39;17.00;85.50
63383;DHT22;49512;48.744;9.176;2023-02-01T02:00:07;17.00;85.70
63383;DHT22;49512;48.744;9.176;2023-02-01T02:02:34;17.00;85.00
63383;DHT22;49512;48.744;9.176;2023-02-01T02:05:01;17.00;84.70
63383;DHT22;49512;48.744;9.176;2023-02-01T02:07:28;17.00;85.40
63383;DHT22;49512;48.744;9.176;2023-02-01T02:09:55;17.00;85.10
63383;DHT22;49512;48.744;9.176;2023-02-01T02:12:20;16.90;85.00
63383;DHT22;49512;48.744;9.176;2023-02-01T02:14:46;17.00;85.00
63383;DHT22;49512;48.744;9.176;2023-02-01T02:22:30;17.00;85.80
63383;DHT22;49512;48.744;9.176;2023-02-01T02:35:43;17.00;85.90
63383;DHT22;49512;48.744;9.176;2023-02-01T02:43:10;17.00;84.90
63383;DHT22;49512;48.744;9.176;2023-02-01T02:48:48;17.00;85.00
63383;DHT22;49512;48.744;9.176;2023-02-01T02:51:30;16.90;85.00
63383;DHT22;49512;48.744;9.176;2023-02-01T02:54:21;16.90;85.70
63383;DHT22;49512;48.744;9.176;2023-02-01T02:57:07;17.00;85.00
63383;DHT22;49512;48.744;9.176;2023-02-01T02:59:52;16.90;85.10
63383;DHT22;49512;48.744;9.176;2023-02-01T03:02:36;16.90;85.30
63383;DHT22;49512;48.744;9.176;2023-02-01T03:05:21;17.50;86.70
63383;DHT22;49512;48.744;9.176;2023-02-01T03:07:57;16.90;85.00
63383;DHT22;49512;48.744;9.176;2023-02-01T03:15:49;16.90;85.00
63383;DHT22;49512;48.744;9.176;2023-02-01T03:18:17;16.90;84.60
63383;DHT22;49512;48.744;9.176;2023-02-01T03:20:44;16.90;84.60
63383;DHT22;49512;48.744;9.176;2023-02-01T03:23:12;16.90;84.20
63383;DHT22;49512;48.744;9.176;2023-02-01T03:25:38;17.00;84.30
63383;DHT22;49512;48.744;9.176;2023-02-01T03:28:05;16.90;84.30
63383;DHT22;49512;48.744;9.176;2023-02-01T03:30:33;17.00;84.00
63383;DHT22;49512;48.744;9.176;2023-02-01T03:33:00;17.00;84.00
63383;DHT22;49512;48.744;9.176;2023-02-01T03:35:40;16.90;84.20
63383;DHT22;49512;48.744;9.176;2023-02-01T03:38:12;16.90;84.60
63383;DHT22;49512;48.744;9.176;2023-02-01T03:40:39;16.90;84.30
63383;DHT22;49512;48.744;9.176;2023-02-01T03:43:06;16.90;84.30
63383;DHT22;49512;48.744;9.176;2023-02-01T03:45:36;16.90;84.00
63383;DHT22;49512;48.744;9.176;2023-02-01T03:48:04;16.90;84.40
63383;DHT22;49512;48.744;9.176;2023-02-01T03:50:30;16.90;84.10
63383;DHT22;49512;48.744;9.176;2023-02-01T03:52:58;16.90;84.10
63383;DHT22;49512;48.744;9.176;2023-02-01T03:55:25;16.90;84.20
63383;DHT22;49512;48.744;9.176;2023-02-01T03:57:53;16.90;84.00
63383;DHT22;49512;48.744;9.176;2023-02-01T04:00:22;16.90;84.10
63383;DHT22;49512;48.744;9.176;2023-02-01T04:02:48;16.90;84.30
63383;DHT22;49512;48.744;9.176;2023-02-01T04:05:14;16.90;84.20
63383;DHT22;49512;48.744;9.176;2023-02-01T04:07:39;16.90;84.20
63383;DHT22;49512;48.744;9.176;2023-02-01T04:10:05;16.90;84.20
63383;DHT22;49512;48.744;9.176;2023-02-01T04:12:31;16.90;84.40
63383;DHT22;49512;48.744;9.176;2023-02-01T04:14:56;16.90;83.90
63383;DHT22;49512;48.744;9.176;2023-02-01T04:17:22;16.90;84.30
63383;DHT22;49512;48.744;9.176;2023-02-01T04:19:47;16.90;84.30
63383;DHT22;49512;48.744;9.176;2023-02-01T04:22:13;16.90;83.90
63383;DHT22;49512;48.744;9.176;2023-02-01T04:24:38;16.90;84.00
63383;DHT22;49512;48.744;9.176;2023-02-01T04:27:04;16.90;84.00
63383;DHT22;49512;48.744;9.176;2023-02-01T04:29:29;16.90;84.10
63383;DHT22;49512;48.744;9.176;2023-02-01T04:31:55;16.90;84.30
63383;DHT22;49512;48.744;9.176;2023-02-01T04:34:20;16.90;84.30
63383;DHT22;49512;48.744;9.176;2023-02-01T04:36:47;16.90;84.00
63383;DHT22;49512;48.744;9.176;2023-02-01T04:39:13;16.90;84.20
63383;DHT22;49512;48.744;9.176;2023-02-01T04:41:38;16.90;84.00
63383;DHT22;49512;48.744;9.176;2023-02-01T04:44:04;16.90;83.90
63383;DHT22;49512;48.744;9.176;2023-02-01T04:46:29;16.90;83.70
63383;DHT22;49512;48.744;9.176;2023-02-01T04:48:55;16.90;83.70
63383;DHT22;49512;48.744;9.176;2023-02-01T04:51:20;16.90;83.80
63383;DHT22;49512;48.744;9.176;2023-02-01T04:53:46;16.90;83.30
63383;DHT22;49512;48.744;9.176;2023-02-01T04:56:11;16.90;83.50
63383;DHT22;49512;48.744;9.176;2023-02-01T04:58:37;16.90;83.80
63383;DHT22;49512;48.744;9.176;2023-02-01T05:01:03;16.90;84.20
63383;DHT22;49512;48.744;9.176;2023-02-01T05:03:30;16.90;83.90
63383;DHT22;49512;48.744;9.176;2023-02-01T05:05:55;16.90;83.60
63383;DHT22;49512;48.744;9.176;2023-02-01T05:08:21;16.90;83.70
63383;DHT22;49512;48.744;9.176;2023-02-01T05:10:47;16.90;84.10
63383;DHT22;49512;48.744;9.176;2023-02-01T05:13:13;16.80;84.00
63383;DHT22;49512;48.744;9.176;2023-02-01T05:15:57;16.90;83.40
63383;DHT22;49512;48.744;9.176;2023-02-01T05:18:22;16.90;83.50
63383;DHT22;49512;48.744;9.176;2023-02-01T05:20:48;16.90;83.60
63383;DHT22;49512;48.744;9.176;2023-02-01T05:23:13;16.90;84.70
63383;DHT22;49512;48.744;9.176;2023-02-01T05:25:39;16.90;83.20
63383;DHT22;49512;48.744;9.176;2023-02-01T05:28:04;16.90;83.20
63383;DHT22;49512;48.744;9.176;2023-02-01T05:30:30;16.80;83.30
63383;DHT22;49512;48.744;9.176;2023-02-01T05:32:57;16.90;82.90
63383;DHT22;49512;48.744;9.176;2023-02-01T05:35:23;16.90;83.00
63383;DHT22;49512;48.744;9.176;2023-02-01T05:37:48;16.90;83.00
63383;DHT22;49512;48.744;9.176;2023-02-01T05:40:14;16.90;83.00
63383;DHT22;49512;48.744;9.176;2023-02-01T05:42:42;17.00;83.00
63383;DHT22;49512;48.744;9.176;2023-02-01T05:45:07;16.90;83.30
63383;DHT22;49512;48.744;9.176;2023-02-01T05:47:33;16.90;83.00
63383;DHT22;49512;48.744;9.176;2023-02-01T05:49:58;16.90;82.80
63383;DHT22;49512;48.744;9.176;2023-02-01T05:52:24;16.90;83.00
63383;DHT22;49512;48.744;9.176;2023-02-01T05:54:49;16.90;83.40
63383;DHT22;49512;48.744;9.176;2023-02-01T05:57:15;16.90;82.70
63383;DHT22;49512;48.744;9.176;2023-02-01T05:59:41;16.90;83.00
63383;DHT22;49512;48.744;9.176;2023-02-01T06:02:07;16.90;83.20
63383;DHT22;49512;48.744;9.176;2023-02-01T06:04:33;16.90;83.40
63383;DHT22;49512;48.744;9.176;2023-02-01T06:06:58;16.90;83.60
63383;DHT22;49512;48.744;9.176;2023-02-01T06:09:23;16.90;83.60
63383;DHT22;49512;48.744;9.176;2023-02-01T06:11:49;16.90;83.60
63383;DHT22;49512;48.744;9.176;2023-02-01T06:14:14;16.90;83.10
63383;DHT22;49512;48.744;9.176;2023-02-01T06:16:40;16.90;83.20
63383;DHT22;49512;48.744;9.176;2023-02-01T06:19:05;16.90;83.10
63383;DHT22;49512;48.744;9.176;2023-02-01T06:21:31;16.90;83.20
63383;DHT22;49512;48.744;9.176;2023-02-01T06:23:56;16.90;83.00
63383;DHT22;49512;48.744;9.176;2023-02-01T06:26:22;16.90;83.00
63383;DHT22;49512;48.744;9.176;2023-02-01T06:28:48;16.90;82.10
63383;DHT22;49512;48.744;9.176;2023-02-01T06:31:14;17.00;82.30
63383;DHT22;49512;48.744;9.176;2023-02-01T06:33:40;16.90;82.20
63383;DHT22;49512;48.744;9.176;2023-02-01T06:36:06;16.90;82.50
63383;DHT22;49512;48.744;9.176;2023-02-01T06:38:32;16.90;82.60
63383;DHT22;49512;48.744;9.176;2023-02-01T06:41:00;16.90;82.40
63383;DHT22;49512;48.744;9.176;2023-02-01T06:43:26;16.80;82.90
63383;DHT22;49512;48.744;9.176;2023-02-01T06:45:51;16.90;82.30
63383;DHT22;49512;48.744;9.176;2023-02-01T06:48:17;16.90;81.90
63383;DHT22;49512;48.744;9.176;2023-02-01T06:50:43;17.00;81.60
63383;DHT22;49512;48.744;9.176;2023-02-01T06:53:08;16.90;81.90
63383;DHT22;49512;48.744;9.176;2023-02-01T06:55:34;16.90;82.10
63383;DHT22;49512;48.744;9.176;2023-02-01T06:57:59;16.90;81.70
63383;DHT22;49512;48.744;9.176;2023-02-01T07:00:26;17.20;86.00
63383;DHT22;49512;48.744;9.176;2023-02-01T07:02:51;17.10;86.70
63383;DHT22;49512;48.744;9.176;2023-02-01T07:05:17;17.20;85.30
63383;DHT22;49512;48.744;9.176;2023-02-01T07:07:42;17.20;86.90
63383;DHT22;49512;48.744;9.176;2023-02-01T07:10:08;17.20;88.00
63383;DHT22;49512;48.744;9.176;2023-02-01T07:12:34;17.10;88.60
63383;DHT22;49512;48.744;9.176;2023-02-01T07:15:04;17.10;89.30
63383;DHT22;49512;48.744;9.176;2023-02-01T07:17:30;17.30;90.00
63383;DHT22;49512;48.744;9.176;2023-02-01T07:19:55;17.50;90.10
63383;DHT22;49512;48.744;9.176;2023-02-01T07:22:22;17.40;89.40
63383;DHT22;49512;48.744;9.176;2023-02-01T07:24:47;17.40;89.40
63383;DHT22;49512;48.744;9.176;2023-02-01T07:27:13;17.40;90.20
63383;DHT22;49512;48.744;9.176;2023-02-01T07:29:38;17.40;90.30
63383;DHT22;49512;48.744;9.176;2023-02-01T07:32:04;17.40;90.00
63383;DHT22;49512;48.744;9.176;2023-02-01T07:34:29;17.30;89.90
63383;DHT22;49512;48.744;9.176;2023-02-01T07:36:56;17.30;88.40
63383;DHT22;49512;48.744;9.176;2023-02-01T07:39:21;17.20;88.40
63383;DHT22;49512;48.744;9.176;2023-02-01T07:41:47;17.20;89.10
63383;DHT22;49512;48.744;9.176;2023-02-01T07:44:12;17.40;89.20
63383;DHT22;49512;48.744;9.176;2023-02-01T07:46:38;17.30;88.60
63383;DHT22;49512;48.744;9.176;2023-02-01T07:49:04;17.30;87.40
63383;DHT22;49512;48.744;9.176;2023-02-01T07:51:30;17.30;87.80
63383;DHT22;49512;48.744;9.176;2023-02-01T07:53:55;17.30;86.70
63383;DHT22;49512;48.744;9.176;2023-02-01T07:56:21;17.30;86.40
63383;DHT22;49512;48.744;9.176;2023-02-01T07:58:48;17.30;86.90
63383;DHT22;49512;48.744;9.176;2023-02-01T08:01:17;17.20;86.30
63383;DHT22;49512;48.744;9.176;2023-02-01T08:03:56;17.30;86.70
63383;DHT22;49512;48.744;9.176;2023-02-01T08:06:22;17.30;86.40
63383;DHT22;49512;48.744;9.176;2023-02-01T08:08:48;17.30;86.60
63383;DHT22;49512;48.744;9.176;2023-02-01T08:11:14;17.20;86.70
63383;DHT22;49512;48.744;9.176;2023-02-01T08:13:40;17.20;86.70
63383;DHT22;49512;48.744;9.176;2023-02-01T08:16:06;17.20;86.10
63383;DHT22;49512;48.744;9.176;2023-02-01T08:18:32;17.20;86.10
63383;DHT22;49512;48.744;9.176;2023-02-01T08:21:02;17.20;87.30
63383;DHT22;49512;48.744;9.176;2023-02-01T08:26:03;16.90;94.20
63383;DHT22;49512;48.744;9.176;2023-02-01T08:28:28;16.90;94.20
63383;DHT22;49512;48.744;9.176;2023-02-01T08:30:54;16.80;94.00
63383;DHT22;49512;48.744;9.176;2023-02-01T08:33:19;17.20;92.00
63383;DHT22;49512;48.744;9.176;2023-02-01T08:35:45;17.30;91.80
63383;DHT22;49512;48.744;9.176;2023-02-01T08:38:10;17.40;91.80
63383;DHT22;49512;48.744;9.176;2023-02-01T08:40:36;17.40;91.70
63383;DHT22;49512;48.744;9.176;2023-02-01T08:43:01;17.40;91.00
63383;DHT22;49512;48.744;9.176;2023-02-01T08:45:27;17.50;90.80
63383;DHT22;49512;48.744;9.176;2023-02-01T08:47:55;17.50;92.80
63383;DHT22;49512;48.744;9.176;2023-02-01T08:50:21;17.50;91.70
63383;DHT22;49512;48.744;9.176;2023-02-01T08:52:47;17.50;92.00
63383;DHT22;49512;48.744;9.176;2023-02-01T08:55:13;17.50;92.10
63383;DHT22;49512;48.744;9.176;2023-02-01T08:57:39;17.60;93.90
63383;DHT22;49512;48.744;9.176;2023-02-01T09:00:05;17.60;94.70
63383;DHT22;49512;48.744;9.176;2023-02-01T09:02:31;17.60;94.60
63383;DHT22;49512;48.744;9.176;2023-02-01T09:04:56;17.60;94.60
63383;DHT22;49512;48.744;9.176;2023-02-01T09:07:22;17.50;93.80
63383;DHT22;49512;48.744;9.176;2023-02-01T09:09:47;17.50;93.60
63383;DHT22;49512;48.744;9.176;2023-02-01T09:12:13;17.40;93.50
63383;DHT22;49512;48.744;9.176;2023-02-01T09:14:38;17.40;93.30
63383;DHT22;49512;48.744;9.176;2023-02-01T09:17:04;17.40;93.10
63383;DHT22;49512;48.744;9.176;2023-02-01T09:19:30;17.30;93.00
63383;DHT22;49512;48.744;9.176;2023-02-01T09:21:56;17.30;92.90
63383;DHT22;49512;48.744;9.176;2023-02-01T09:24:21;17.30;92.90
63383;DHT22;49512;48.744;9.176;2023-02-01T09:26:47;17.30;92.90
63383;DHT22;49512;48.744;9.176;2023-02-01T09:29:13;16.10;92.40
63383;DHT22;49512;48.744;9.176;2023-02-01T09:31:39;17.30;92.90
63383;DHT22;49512;48.744;9.176;2023-02-01T09:34:05;17.30;92.80
63383;DHT22;49512;48.744;9.176;2023-02-01T09:36:31;17.20;84.60
63383;DHT22;49512;48.744;9.176;2023-02-01T09:38:57;17.20;84.70
63383;DHT22;49512;48.744;9.176;2023-02-01T09:44:07;17.30;83.70
63383;DHT22;49512;48.744;9.176;2023-02-01T09:46:37;17.30;83.60
63383;DHT22;49512;48.744;9.176;2023-02-01T09:49:10;17.30;83.80
63383;DHT22;49512;48.744;9.176;2023-02-01T09:51:38;17.30;82.40
63383;DHT22;49512;48.744;9.176;2023-02-01T09:56:44;17.30;81.30
63383;DHT22;49512;48.744;9.176;2023-02-01T10:01:39;17.30;82.40
63383;DHT22;49512;48.744;9.176;2023-02-01T10:04:07;17.30;82.00
63383;DHT22;49512;48.744;9.176;2023-02-01T10:09:27;17.30;82.10
63383;DHT22;49512;48.744;9.176;2023-02-01T10:15:02;17.30;82.60
63383;DHT22;49512;48.744;9.176;2023-02-01T10:20:10;17.30;80.90
63383;DHT22;49512;48.744;9.176;2023-02-01T10:27:32;17.30;80.60
63383;DHT22;49512;48.744;9.176;2023-02-01T10:29:59;17.30;81.30
63383;DHT22;49512;48.744;9.176;2023-02-01T10:32:30;17.20;81.40
63383;DHT22;49512;48.744;9.176;2023-02-01T10:35:00;17.30;80.60
63383;DHT22;49512;48.744;9.176;2023-02-01T10:37:27;17.30;78.20
63383;DHT22;49512;48.744;9.176;2023-02-01T10:39:54;17.30;79.40
63383;DHT22;49512;48.744;9.176;2023-02-01T10:42:21;17.30;80.90
63383;DHT22;49512;48.744;9.176;2023-02-01T10:44:48;17.20;81.40
63383;DHT22;49512;48.744;9.176;2023-02-01T10:47:14;17.20;81.60
63383;DHT22;49512;48.744;9.176;2023-02-01T10:49:43;17.20;81.80
63383;DHT22;49512;48.744;9.176;2023-02-01T10:52:14;17.20;79.40
63383;DHT22;49512;48.744;9.176;2023-02-01T10:54:40;17.20;79.60
63383;DHT22;49512;48.744;9.176;2023-02-01T10:57:07;17.30;79.90
63383;DHT22;49512;48.744;9.176;2023-02-01T10:59:32;17.20;81.00
63383;DHT22;49512;48.744;9.176;2023-02-01T11:02:25;17.20;80.80
63383;DHT22;49512;48.744;9.176;2023-02-01T11:04:47;17.20;81.50
63383;DHT22;49512;48.744;9.176;2023-02-01T11:09:41;17.10;81.20
63383;DHT22;49512;48.744;9.176;2023-02-01T11:12:20;17.10;82.40
63383;DHT22;49512;48.744;9.176;2023-02-01T11:14:47;17.10;82.40
63383;DHT22;49512;48.744;9.176;2023-02-01T11:19:45;17.10;82.40
63383;DHT22;49512;48.744;9.176;2023-02-01T11:22:10;17.00;81.70
63383;DHT22;49512;48.744;9.176;2023-02-01T11:24:37;17.00;80.00
63383;DHT22;49512;48.744;9.176;2023-02-01T11:27:14;17.00;82.20
63383;DHT22;49512;48.744;9.176;2023-02-01T11:29:41;17.00;82.00
63383;DHT22;49512;48.744;9.176;2023-02-01T11:32:08;17.00;82.90
63383;DHT22;49512;48.744;9.176;2023-02-01T11:37:00;17.00;82.20
63383;DHT22;49512;48.744;9.176;2023-02-01T11:39:29;17.00;82.40
63383;DHT22;49512;48.744;9.176;2023-02-01T11:44:46;17.00;82.90
63383;DHT22;49512;48.744;9.176;2023-02-01T11:49:47;17.00;82.00
63383;DHT22;49512;48.744;9.176;2023-02-01T11:52:18;17.00;80.40
63383;DHT22;49512;48.744;9.176;2023-02-01T12:05:18;17.20;80.60
63383;DHT22;49512;48.744;9.176;2023-02-01T12:12:54;17.20;80.80
63383;DHT22;49512;48.744;9.176;2023-02-01T12:15:40;17.20;80.50
63383;DHT22;49512;48.744;9.176;2023-02-01T12:18:18;17.20;80.70
63383;DHT22;49512;48.744;9.176;2023-02-01T12:34:38;17.20;77.90
63383;DHT22;49512;48.744;9.176;2023-02-01T12:39:43;17.20;78.20
63383;DHT22;49512;48.744;9.176;2023-02-01T12:44:50;17.20;77.90
63383;DHT22;49512;48.744;9.176;2023-02-01T12:49:46;17.20;76.80
63383;DHT22;49512;48.744;9.176;2023-02-01T12:52:14;17.20;77.60
63383;DHT22;49512;48.744;9.176;2023-02-01T12:54:42;17.20;77.80
63383;DHT22;49512;48.744;9.176;2023-02-01T12:57:18;17.20;77.00
63383;DHT22;49512;48.744;9.176;2023-02-01T12:59:53;17.20;77.10
63383;DHT22;49512;48.744;9.176;2023-02-01T13:02:42;17.20;76.40
63383;DHT22;49512;48.744;9.176;2023-02-01T13:05:17;17.20;77.60
63383;DHT22;49512;48.744;9.176;2023-02-01T13:07:45;17.20;77.40
63383;DHT22;49512;48.744;9.176;2023-02-01T13:12:40;17.20;74.20
63383;DHT22;49512;48.744;9.176;2023-02-01T13:15:16;17.20;76.00
63383;DHT22;49512;48.744;9.176;2023-02-01T13:17:42;17.20;77.60
63383;DHT22;49512;48.744;9.176;2023-02-01T13:20:16;17.10;78.10
63383;DHT22;49512;48.744;9.176;2023-02-01T13:22:45;17.20;78.20
63383;DHT22;49512;48.744;9.176;2023-02-01T13:27:38;17.20;77.50
63383;DHT22;49512;48.744;9.176;2023-02-01T13:30:06;17.20;77.80
63383;DHT22;49512;48.744;9.176;2023-02-01T13:40:46;17.20;78.10
63383;DHT22;49512;48.744;9.176;2023-02-01T13:45:42;17.20;77.10
63383;DHT22;49512;48.744;9.176;2023-02-01T13:48:15;17.20;77.90
63383;DHT22;49512;48.744;9.176;2023-02-01T13:50:43;17.20;78.20
63383;DHT22;49512;48.744;9.176;2023-02-01T14:16:16;17.00;79.10
63383;DHT22;49512;48.744;9.176;2023-02-01T14:23:47;17.10;77.50
63383;DHT22;49512;48.744;9.176;2023-02-01T14:31:28;17.00;76.40
63383;DHT22;49512;48.744;9.176;2023-02-01T14:33:57;17.00;76.10
63383;DHT22;49512;48.744;9.176;2023-02-01T14:36:23;17.00;76.70
63383;DHT22;49512;48.744;9.176;2023-02-01T14:38:49;17.00;77.00
63383;DHT22;49512;48.744;9.176;2023-02-01T14:41:33;17.20;76.70
63383;DHT22;49512;48.744;9.176;2023-02-01T14:49:13;17.40;80.60
63383;DHT22;49512;48.744;9.176;2023-02-01T14:51:38;17.40;82.10
63383;DHT22;49512;48.744;9.176;2023-02-01T14:54:04;17.40;80.40
63383;DHT22;49512;48.744;9.176;2023-02-01T14:56:30;17.50;82.20
63383;DHT22;49512;48.744;9.176;2023-02-01T14:59:11;17.50;84.30
63383;DHT22;49512;48.744;9.176;2023-02-01T15:01:38;17.50;83.10
63383;DHT22;49512;48.744;9.176;2023-02-01T15:04:17;17.40;84.90
63383;DHT22;49512;48.744;9.176;2023-02-01T15:06:57;17.50;85.30
63383;DHT22;49512;48.744;9.176;2023-02-01T15:14:40;17.40;85.10
63383;DHT22;49512;48.744;9.176;2023-02-01T15:20:04;17.20;83.80
63383;DHT22;49512;48.744;9.176;2023-02-01T15:22:37;17.20;84.60
63383;DHT22;49512;48.744;9.176;2023-02-01T15:25:02;17.20;82.00
63383;DHT22;49512;48.744;9.176;2023-02-01T15:27:28;17.20;80.30
63383;DHT22;49512;48.744;9.176;2023-02-01T15:29:54;17.20;80.20
63383;DHT22;49512;48.744;9.176;2023-02-01T15:32:30;17.20;82.30
63383;DHT22;49512;48.744;9.176;2023-02-01T15:34:59;17.20;82.80
63383;DHT22;49512;48.744;9.176;2023-02-01T15:37:27;17.20;81.60
63383;DHT22;49512;48.744;9.176;2023-02-01T15:45:21;17.20;81.50
63383;DHT22;49512;48.744;9.176;2023-02-01T15:47:47;17.20;81.80
63383;DHT22;49512;48.744;9.176;2023-02-01T15:50:17;17.20;82.20
63383;DHT22;49512;48.744;9.176;2023-02-01T15:52:45;17.20;81.10
63383;DHT22;49512;48.744;9.176;2023-02-01T15:57:43;17.20;81.00
63383;DHT22;49512;48.744;9.176;2023-02-01T16:00:22;17.20;81.60
63383;DHT22;49512;48.744;9.176;2023-02-01T16:08:19;17.20;79.90
63383;DHT22;49512;48.744;9.176;2023-02-01T16:10:49;17.20;80.00
63383;DHT22;49512;48.744;9.176;2023-02-01T16:13:16;17.20;80.60
63383;DHT22;49512;48.744;9.176;2023-02-01T16:15:42;17.20;79.80
63383;DHT22;49512;48.744;9.176;2023-02-01T16:18:07;17.20;78.80
63383;DHT22;49512;48.744;9.176;2023-02-01T16:20:34;17.20;77.50
63383;DHT22;49512;48.744;9.176;2023-02-01T16:23:01;17.20;78.00
63383;DHT22;49512;48.744;9.176;2023-02-01T16:25:26;17.20;79.60
63383;DHT22;49512;48.744;9.176;2023-02-01T16:27:52;17.20;77.60
63383;DHT22;49512;48.744;9.176;2023-02-01T16:30:17;17.20;78.50
63383;DHT22;49512;48.744;9.176;2023-02-01T16:32:48;17.20;76.80
63383;DHT22;49512;48.744;9.176;2023-02-01T16:35:33;17.20;75.60
63383;DHT22;49512;48.744;9.176;2023-02-01T16:38:03;17.20;76.60
63383;DHT22;49512;48.744;9.176;2023-02-01T16:40:34;17.20;77.70
63383;DHT22;49512;48.744;9.176;2023-02-01T16:42:59;17.20;75.80
63383;DHT22;49512;48.744;9.176;2023-02-01T16:45:25;17.10;75.40
63383;DHT22;49512;48.744;9.176;2023-02-01T16:47:51;17.20;77.90
63383;DHT22;49512;48.744;9.176;2023-02-01T16:50:23;17.20;77.10
63383;DHT22;49512;48.744;9.176;2023-02-01T16:52:49;17.20;77.80
63383;DHT22;49512;48.744;9.176;2023-02-01T16:55:15;17.20;76.50
63383;DHT22;49512;48.744;9.176;2023-02-01T16:57:41;17.20;76.50
63383;DHT22;49512;48.744;9.176;2023-02-01T17:00:08;17.00;77.30
63383;DHT22;49512;48.744;9.176;2023-02-01T17:02:33;17.20;77.50
63383;DHT22;49512;48.744;9.176;2023-02-01T17:04:59;17.10;77.40
63383;DHT22;49512;48.744;9.176;2023-02-01T17:07:24;17.20;78.40
63383;DHT22;49512;48.744;9.176;2023-02-01T17:09:51;17.20;78.10
63383;DHT22;49512;48.744;9.176;2023-02-01T17:12:35;17.10;76.50
63383;DHT22;49512;48.744;9.176;2023-02-01T17:15:01;17.20;77.80
63383;DHT22;49512;48.744;9.176;2023-02-01T17:17:37;17.20;77.90
63383;DHT22;49512;48.744;9.176;2023-02-01T17:20:04;17.20;77.60
63383;DHT22;49512;48.744;9.176;2023-02-01T17:22:29;17.20;78.10
63383;DHT22;49512;48.744;9.176;2023-02-01T17:24:55;17.20;77.30
63383;DHT22;49512;48.744;9.176;2023-02-01T17:27:20;17.10;78.00
63383;DHT22;49512;48.744;9.176;2023-02-01T17:29:46;17.10;77.70
63383;DHT22;49512;48.744;9.176;2023-02-01T17:32:16;17.20;76.20
63383;DHT22;49512;48.744;9.176;2023-02-01T17:34:42;17.10;77.60
63383;DHT22;49512;48.744;9.176;2023-02-01T17:37:14;17.10;77.80
63383;DHT22;49512;48.744;9.176;2023-02-01T17:39:40;17.10;77.80
63383;DHT22;49512;48.744;9.176;2023-02-01T17:42:22;17.10;78.10
63383;DHT22;49512;48.744;9.176;2023-02-01T17:44:49;17.10;77.40
63383;DHT22;49512;48.744;9.176;2023-02-01T17:47:15;17.10;77.10
63383;DHT22;49512;48.744;9.176;2023-02-01T17:49:40;17.00;78.20
63383;DHT22;49512;48.744;9.176;2023-02-01T17:52:06;17.00;77.90
63383;DHT22;49512;48.744;9.176;2023-02-01T17:54:33;17.00;76.30
63383;DHT22;49512;48.744;9.176;2023-02-01T17:56:59;17.00;78.20
63383;DHT22;49512;48.744;9.176;2023-02-01T17:59:27;17.00;78.70
63383;DHT22;49512;48.744;9.176;2023-02-01T18:01:53;17.10;79.70
63383;DHT22;49512;48.744;9.176;2023-02-01T18:04:24;17.20;80.10
63383;DHT22;49512;48.744;9.176;2023-02-01T18:06:50;17.40;81.80
63383;DHT22;49512;48.744;9.176;2023-02-01T18:09:15;17.60;85.90
63383;DHT22;49512;48.744;9.176;2023-02-01T18:11:41;17.60;87.10
63383;DHT22;49512;48.744;9.176;2023-02-01T18:14:08;17.60;96.40
63383;DHT22;49512;48.744;9.176;2023-02-01T18:16:34;17.80;99.90
63383;DHT22;49512;48.744;9.176;2023-02-01T18:19:01;18.00;99.90
63383;DHT22;49512;48.744;9.176;2023-02-01T18:21:50;18.00;99.90
63383;DHT22;49512;48.744;9.176;2023-02-01T18:24:17;18.10;99.90
63383;DHT22;49512;48.744;9.176;2023-02-01T18:26:43;18.10;99.90
63383;DHT22;49512;48.744;9.176;2023-02-01T18:29:09;18.00;99.90
63383;DHT22;49512;48.744;9.176;2023-02-01T18:31:35;18.00;99.90
63383;DHT22;49512;48.744;9.176;2023-02-01T18:34:00;18.00;99.90
63383;DHT22;49512;48.744;9.176;2023-02-01T18:36:26;18.00;99.90